Austinville, Iowa
Current Conditions -  °F | °C
As of 8:35 PM on Wednesday 22 Oct 2014 (Local Time) from KIFA Reporting Station
Broken Clouds Broken Clouds  
Wind Chill: 56°   Ceiling: 6000
Heat Index: 56°   Visibility: 10mi
Dew Point: 42°   Wind: 13mph
Humidity: 60%   Direction: 140°SE
Pressure: 30.12"   Gusts: 17mph
Location:  42.59°N, 92.96°W
Report Text: KIFA 230135Z AUTO 14011G15KT 10SM BKN060 BKN080 13/06 A3012 RMK AO2 T01320056
Loading
Personal Weather Stations






























Interactive Weather Map New forecast layout! Learn more

10-Day Weather Forecast

Advertisements
Track Severe Weather on mobile